createdAt,value
2023-02-11T00:03:40.293Z,54.50
2023-02-11T00:08:49.865Z,49.30
2023-02-11T00:13:57.253Z,53.10
2023-02-11T00:19:06.803Z,37.90
2023-02-11T00:24:14.670Z,44.20
2023-02-11T00:29:22.254Z,35.90
2023-02-11T00:34:30.915Z,50.70
2023-02-11T00:39:40.341Z,39.00
2023-02-11T00:44:48.541Z,45.60
2023-02-11T00:49:56.684Z,59.60
2023-02-11T00:55:03.877Z,45.80
2023-02-11T01:10:27.076Z,50.30
2023-02-11T01:15:34.905Z,50.20
2023-02-11T01:20:42.501Z,37.90
2023-02-11T01:25:51.311Z,37.00
2023-02-11T01:30:59.629Z,41.90
2023-02-11T01:36:09.173Z,55.50
2023-02-11T01:41:18.558Z,51.10
2023-02-11T01:46:37.924Z,53.90
2023-02-11T01:51:48.783Z,60.90
2023-02-11T01:57:16.942Z,51.00
2023-02-11T02:02:28.720Z,32.20
2023-02-11T02:07:43.317Z,37.60
2023-02-11T02:12:51.215Z,36.40
2023-02-11T02:18:13.316Z,46.10
2023-02-11T02:24:18.216Z,33.30
2023-02-11T02:30:09.862Z,37.70
2023-02-11T02:35:30.405Z,39.20
2023-02-11T02:40:42.406Z,44.40
2023-02-11T02:45:49.992Z,49.40
2023-02-11T02:51:09.354Z,46.60
2023-02-11T02:56:26.793Z,48.80
2023-02-11T03:06:53.417Z,34.00
2023-02-11T03:12:02.324Z,41.30
2023-02-11T03:17:12.017Z,27.40
2023-02-11T03:22:26.730Z,31.70
2023-02-11T03:27:41.743Z,30.40
2023-02-11T03:32:56.611Z,27.30
2023-02-11T03:38:10.035Z,27.60
2023-02-11T03:43:22.924Z,29.10
2023-02-11T03:48:41.081Z,23.10
2023-02-11T03:53:52.456Z,31.30
2023-02-11T03:59:00.738Z,34.80
2023-02-11T04:04:08.770Z,27.40
2023-02-11T04:09:17.766Z,34.40
2023-02-11T04:14:25.233Z,29.90
2023-02-11T04:19:33.518Z,32.70
2023-02-11T04:24:44.341Z,27.20
2023-02-11T04:29:52.604Z,25.10
2023-02-11T04:34:59.885Z,25.10
2023-02-11T04:40:09.396Z,26.10
2023-02-11T04:45:16.979Z,29.50
2023-02-11T04:50:24.415Z,22.70
2023-02-11T04:55:31.939Z,23.80
2023-02-11T05:00:39.439Z,22.10
2023-02-11T05:05:47.526Z,25.40
2023-02-11T05:10:55.053Z,22.90
2023-02-11T05:16:07.832Z,33.50
2023-02-11T05:21:20.805Z,27.90
2023-02-11T05:26:28.829Z,34.10
2023-02-11T05:31:36.435Z,28.30
2023-02-11T05:36:44.324Z,30.50
2023-02-11T05:41:51.715Z,30.30
2023-02-11T05:47:01.419Z,26.40
2023-02-11T05:52:09.495Z,31.00
2023-02-11T05:57:18.786Z,22.40
2023-02-11T06:02:29.830Z,36.80
2023-02-11T06:07:37.459Z,40.10
2023-02-11T06:12:45.866Z,38.20
2023-02-11T06:17:54.256Z,39.20
2023-02-11T06:23:01.513Z,36.60
2023-02-11T06:33:15.216Z,24.30
2023-02-11T06:43:28.704Z,35.10
2023-02-11T06:48:36.573Z,25.40
2023-02-11T06:53:48.969Z,26.50
2023-02-11T06:59:00.249Z,22.70
2023-02-11T07:04:08.618Z,32.30
2023-02-11T07:09:17.175Z,32.70
2023-02-11T07:20:19.650Z,34.10
2023-02-11T07:25:23.864Z,27.70
2023-02-11T07:30:28.006Z,29.40
2023-02-11T07:35:32.393Z,20.70
2023-02-11T07:40:36.464Z,15.30
2023-02-11T07:45:40.687Z,22.20
2023-02-11T07:50:44.740Z,23.90
2023-02-11T07:55:49.329Z,26.60
2023-02-11T08:00:53.691Z,21.50
2023-02-11T08:05:57.547Z,30.00
2023-02-11T08:11:07.369Z,27.50
2023-02-11T08:16:19.240Z,13.40
2023-02-11T08:21:23.725Z,24.10
2023-02-11T08:26:28.988Z,15.00
2023-02-11T08:31:36.546Z,22.80
2023-02-11T08:36:44.756Z,20.70
2023-02-11T08:41:49.780Z,19.40
2023-02-11T08:46:54.014Z,22.00
2023-02-11T08:52:01.857Z,21.60
2023-02-11T08:57:06.322Z,19.90
2023-02-11T09:02:13.735Z,24.90
2023-02-11T09:07:17.962Z,14.70
2023-02-11T09:12:21.741Z,22.20
2023-02-11T09:17:25.695Z,23.60
2023-02-11T09:22:29.595Z,23.20
2023-02-11T09:27:33.665Z,15.90
2023-02-11T09:32:38.021Z,21.80
2023-02-11T09:37:42.428Z,17.80
2023-02-11T09:42:50.922Z,23.90
2023-02-11T09:47:59.418Z,19.40
2023-02-11T09:53:05.570Z,18.50
2023-02-11T09:58:14.707Z,20.70
2023-02-11T10:03:59.347Z,18.80
2023-02-11T10:09:33.680Z,21.10
2023-02-11T10:14:55.415Z,18.60
2023-02-11T10:20:17.033Z,19.10
2023-02-11T10:25:24.342Z,24.30
2023-02-11T10:30:32.590Z,18.70
2023-02-11T10:35:38.096Z,25.10
2023-02-11T10:40:43.227Z,15.90
2023-02-11T10:45:49.923Z,27.80
2023-02-11T10:51:09.862Z,18.90
2023-02-11T10:56:23.191Z,21.60
2023-02-11T11:01:41.052Z,23.80
2023-02-11T11:06:46.264Z,24.70
2023-02-11T11:11:53.420Z,17.70
2023-02-11T11:22:01.476Z,21.20
2023-02-11T11:27:06.517Z,21.80
2023-02-11T11:32:19.484Z,21.70
2023-02-11T11:37:28.466Z,20.50
2023-02-11T11:42:34.004Z,24.30
2023-02-11T11:47:43.144Z,26.20
2023-02-11T11:52:54.198Z,19.60
2023-02-11T11:57:58.423Z,26.00
2023-02-11T12:03:39.143Z,22.80
2023-02-11T12:08:53.359Z,22.00
2023-02-11T12:14:12.703Z,22.20
2023-02-11T12:19:56.040Z,26.30
2023-02-11T12:25:13.216Z,26.90
2023-02-11T12:30:42.670Z,27.40
2023-02-11T12:35:58.289Z,20.90
2023-02-11T12:41:15.148Z,27.70
2023-02-11T12:46:34.283Z,26.10
2023-02-11T12:51:51.846Z,27.10
2023-02-11T13:02:06.724Z,24.20
2023-02-11T13:07:16.118Z,29.50
2023-02-11T13:12:38.924Z,29.70
2023-02-11T13:17:49.624Z,20.10
2023-02-11T13:28:48.256Z,23.00
2023-02-11T13:33:56.102Z,24.50
2023-02-11T13:39:08.150Z,26.20
2023-02-11T13:44:26.852Z,20.70
2023-02-11T13:49:41.071Z,26.90
2023-02-11T13:54:51.601Z,17.20
2023-02-11T14:00:00.577Z,26.00
2023-02-11T14:05:41.475Z,22.60
2023-02-11T14:10:57.664Z,25.00
2023-02-11T14:16:10.832Z,33.70
2023-02-11T14:21:23.300Z,24.80
2023-02-11T14:26:45.217Z,22.80
2023-02-11T14:32:04.012Z,22.20
2023-02-11T14:37:28.266Z,28.80
2023-02-11T14:42:37.313Z,21.20
2023-02-11T14:47:52.714Z,21.90
2023-02-11T14:53:06.774Z,33.80
2023-02-11T14:58:20.367Z,22.90
2023-02-11T15:03:34.393Z,21.60
2023-02-11T15:08:48.814Z,23.00
2023-02-11T15:13:57.560Z,18.60
2023-02-11T15:19:08.612Z,32.80
2023-02-11T15:24:27.695Z,28.30
2023-02-11T15:29:40.894Z,19.60
2023-02-11T15:34:50.233Z,21.70
2023-02-11T15:40:09.917Z,16.60
2023-02-11T15:45:29.101Z,27.60
2023-02-11T15:50:40.841Z,27.40
2023-02-11T15:55:50.943Z,28.90
2023-02-11T16:01:00.246Z,30.60
2023-02-11T16:06:23.444Z,26.60
2023-02-11T16:11:34.382Z,27.60
2023-02-11T16:16:42.091Z,26.10
2023-02-11T16:21:50.035Z,42.00
2023-02-11T16:27:01.015Z,27.20
2023-02-11T16:32:17.636Z,31.70
2023-02-11T16:37:25.658Z,33.30
2023-02-11T16:42:33.556Z,22.10
2023-02-11T16:47:43.407Z,22.90
2023-02-11T16:52:52.612Z,41.70
2023-02-11T16:58:00.261Z,27.10
2023-02-11T17:03:11.749Z,33.90
2023-02-11T17:08:19.711Z,35.50
2023-02-11T17:13:27.393Z,27.70
2023-02-11T17:18:36.300Z,39.90
2023-02-11T17:23:45.949Z,37.00
2023-02-11T17:28:53.999Z,17.00
2023-02-11T17:34:01.318Z,23.50
2023-02-11T17:39:09.437Z,37.80
2023-02-11T17:44:16.963Z,38.80
2023-02-11T17:49:24.411Z,31.70
2023-02-11T17:54:31.880Z,39.10
2023-02-11T17:59:39.926Z,36.70
2023-02-11T18:04:47.607Z,47.50
2023-02-11T18:09:55.399Z,47.00
2023-02-11T18:15:03.663Z,28.00
2023-02-11T18:20:13.281Z,29.10
2023-02-11T18:25:21.381Z,37.70
2023-02-11T18:30:29.323Z,38.20
2023-02-11T18:35:40.506Z,38.90
2023-02-11T18:40:50.752Z,52.40
2023-02-11T18:45:58.834Z,36.10
2023-02-11T18:51:11.916Z,41.10
2023-02-11T18:56:21.627Z,49.70
2023-02-11T19:01:30.582Z,38.80
2023-02-11T19:06:39.381Z,38.80
2023-02-11T19:11:50.628Z,47.80
2023-02-11T19:17:01.957Z,32.80
2023-02-11T19:22:10.791Z,47.80
2023-02-11T19:27:18.362Z,47.30
2023-02-11T19:32:25.519Z,44.40
2023-02-11T19:37:32.804Z,52.80
2023-02-11T19:42:40.708Z,54.50
2023-02-11T19:47:48.055Z,56.00
2023-02-11T19:52:55.851Z,57.60
2023-02-11T19:58:03.083Z,49.90
2023-02-11T20:03:11.388Z,47.30
2023-02-11T20:08:19.088Z,45.30
2023-02-11T20:13:26.446Z,47.50
2023-02-11T20:18:33.884Z,52.10
2023-02-11T20:23:42.492Z,24.40
2023-02-11T20:28:51.036Z,69.70
2023-02-11T20:33:58.441Z,52.10
2023-02-11T20:44:14.225Z,67.20
2023-02-11T20:49:24.316Z,53.30
2023-02-11T20:54:31.869Z,62.10
2023-02-11T20:59:40.792Z,50.80
2023-02-11T21:04:48.242Z,60.20
2023-02-11T21:09:55.708Z,55.00
2023-02-11T21:15:05.350Z,48.60
2023-02-11T21:20:14.718Z,55.40
2023-02-11T21:25:22.864Z,54.40
2023-02-11T21:30:30.508Z,60.50
2023-02-11T21:35:38.883Z,70.60
2023-02-11T21:40:46.542Z,90.00
2023-02-11T21:45:54.791Z,155.10
2023-02-11T21:51:05.256Z,38.90
2023-02-11T21:56:15.795Z,77.20
2023-02-11T22:01:25.773Z,58.70
2023-02-11T22:06:35.670Z,42.80
2023-02-11T22:11:43.440Z,64.00
2023-02-11T22:16:51.549Z,60.10
2023-02-11T22:21:59.276Z,78.70
2023-02-11T22:27:06.654Z,87.50
2023-02-11T22:32:14.285Z,76.20
2023-02-11T22:37:21.691Z,54.20
2023-02-11T22:42:28.959Z,66.80
2023-02-11T22:52:42.076Z,80.00
2023-02-11T22:57:49.472Z,70.20
2023-02-11T23:02:57.382Z,82.60
2023-02-11T23:08:05.002Z,84.10
2023-02-11T23:13:12.381Z,81.20
2023-02-11T23:18:20.030Z,66.20
2023-02-11T23:23:27.808Z,62.30
2023-02-11T23:28:35.418Z,77.30
2023-02-11T23:33:44.596Z,64.50
2023-02-11T23:38:52.901Z,64.30
2023-02-11T23:44:01.424Z,85.60
2023-02-11T23:49:09.128Z,68.50
2023-02-11T23:54:17.648Z,63.20
2023-02-11T23:59:24.953Z,81.90
